This is the latest recevied weather packets stored in our database for station/object KG6QHD-13. If no packets are shown the sender has not sent any weather packets the latest 10 day(s).
| Time | Temp. | Humidity | Pressure | Rain* | Wind** | Luminosity | Snow |
|---|---|---|---|---|---|---|---|
| 1777296044 | 5.56° C | 47% | 1010.9 hPa | 0 mm | - | 197 W/m² | - |
| 1777295757 | 5.56° C | 46% | 1010.9 hPa | 0 mm | - | 158 W/m² | - |
| 1777295444 | 5° C | 47% | 1010.9 hPa | 0 mm | - | 130 W/m² | - |
| 1777292745 | 3.89° C | 51% | 1010.3 hPa | 0 mm | - | 12 W/m² | - |
| 1777291849 | 3.33° C | 53% | 1009.9 hPa | 0 mm | - | 7 W/m² | - |
| 1777288847 | 3.89° C | 50% | 1009.3 hPa | 0 mm | - | 0 W/m² | - |
| 1777287346 | 3.89° C | 50% | 1009.3 hPa | 0 mm | - | 0 W/m² | - |
| 1777286445 | 4.44° C | 50% | 1009.1 hPa | 0 mm | - | 0 W/m² | - |
| 1777286147 | 4.44° C | 50% | 1008.8 hPa | 0 mm | - | 0 W/m² | - |
| 1777282846 | 4.44° C | 51% | 1008.1 hPa | 0 mm | - | 0 W/m² | - |
| 1777282250 | 4.44° C | 51% | 1008 hPa | 0 mm | - | 0 W/m² | - |
| 1777281946 | 4.44° C | 50% | 1008 hPa | 0 mm | - | 0 W/m² | - |
| 1777281363 | 4.44° C | 51% | 1007.9 hPa | 0 mm | - | 0 W/m² | - |
| 1777280745 | 4.44° C | 52% | 1007.9 hPa | 0 mm | - | 0 W/m² | - |
| 1777280467 | 4.44° C | 52% | 1007.8 hPa | 0 mm | - | 0 W/m² | - |
| 1777278947 | 3.89° C | 55% | 1008.1 hPa | 0 mm | - | 0 W/m² | - |
| 1777278676 | 4.44° C | 55% | 1008.2 hPa | 0 mm | - | 0 W/m² | - |
| 1777277445 | 4.44° C | 55% | 1008.3 hPa | 0 mm | - | 0 W/m² | - |
| 1777274746 | 4.44° C | 57% | 1008.5 hPa | 0 mm | - | 0 W/m² | - |
| 1777274152 | 4.44° C | 59% | 1008.4 hPa | 0 mm | - | 0 W/m² | - |
| 1777272361 | 4.44° C | 60% | 1008.3 hPa | 0 mm | - | 0 W/m² | - |
| 1777271145 | 5° C | 57% | 1008.2 hPa | 0 mm | - | 0 W/m² | - |
| 1777269946 | 5° C | 58% | 1008.3 hPa | 0 mm | - | 0 W/m² | - |
* Rain latest hour (hover to see other rain measurements)
** Current wind speed in m/s (hover to see current wind gust speed)